Carrollton, Kentucky
Current Conditions -  °F | °C
As of 1:33 PM on Monday 26 Jan 2015 (Local Time) from KIMS Reporting Station
Broken Clouds Broken Clouds  
Wind Chill: 23°   Ceiling: 2200
Heat Index: 30°   Visibility: 10mi
Dew Point: 19°   Wind: 7mph
Humidity: 64%   Direction: 270°W
Pressure: 29.93"   Gusts: NA
Location:  38.68°N, 85.18°W
Report Text: KIMS 261833Z AUTO 27006KT 10SM BKN022 M01/M07 A2993 RMK AO1
Loading
Personal Weather Stations






























Interactive Weather Map New forecast layout! Learn more

10-Day Weather Forecast

Advertisements
Track Severe Weather on mobile